Station Historical Data
Daily Summary for September 6, 2017 Units:  English    Metric   Both
« Previous Day
Next Day »
Daily Weekly Monthly Yearly Custom
  High: Low: Average:
Temperature: TemperatureF °F 53.3 °F 60.8 °F
Dew Point: DewpointF °F 50.5 °F 53.5 °F
Humidity: Humidity% 54% 78%
Wind Speed: WindSpeedMPHmph 0.0mph 1.2mph
Wind Gust: WindSpeedGustMPHmph - -
Wind- - SW
Pressure: PressureIn in 29.81 in -
Precipitation: 0.00 in    
Historical Graphs
 
 
Tabular Data for September 6, 2017
Time Temperature Dew Point Pressure Wind Wind Speed Wind Gust Humidity Rainfall Rate (Hourly)
TemperatureF °F DewpointF °F PressureIn in Calm     Humidity% HourlyPrecipIn in
00:04 57.7 °F 54.2 °F 29.81 in Calm     88% 0.00 in
00:09 57.6 °F 54.1 °F 29.81 in Calm     88% 0.00 in
00:14 57.4 °F 54.2 °F 29.81 in Calm     89% 0.00 in
00:19 57.3 °F 54.1 °F 29.81 in Calm     89% 0.00 in
00:24 57.2 °F 54.0 °F 29.81 in Calm     89% 0.00 in
00:29 56.8 °F 53.6 °F 29.82 in Calm     89% 0.00 in
00:34 56.7 °F 53.8 °F 29.82 in Calm     90% 0.00 in
00:39 56.5 °F 53.6 °F 29.81 in Calm     90% 0.00 in
00:44 56.3 °F 53.4 °F 29.81 in Calm     90% 0.00 in
00:49 56.2 °F 53.3 °F 29.81 in Calm     90% 0.00 in
00:55 56.0 °F 53.1 °F 29.81 in Calm     90% 0.00 in
01:04 55.6 °F 53.0 °F 29.81 in Calm     91% 0.00 in
01:09 55.4 °F 52.8 °F 29.81 in Calm     91% 0.00 in
01:14 55.3 °F 52.7 °F 29.82 in Calm     91% 0.00 in
01:19 55.4 °F 52.8 °F 29.82 in Calm     91% 0.00 in
01:24 55.1 °F 52.5 °F 29.82 in Calm     91% 0.00 in
01:29 55.1 °F 52.5 °F 29.82 in Calm     91% 0.00 in
01:34 54.8 °F 52.2 °F 29.82 in Calm     91% 0.00 in
01:39 54.8 °F 52.2 °F 29.82 in Calm     91% 0.00 in
01:44 54.7 °F 52.1 °F 29.82 in Calm     91% 0.00 in
01:49 54.6 °F 52.3 °F 29.82 in Calm     92% 0.00 in
01:54 54.8 °F 52.5 °F 29.82 in Calm     92% 0.00 in
01:59 54.6 °F 52.3 °F 29.82 in Calm     92% 0.00 in
02:04 54.5 °F 52.2 °F 29.82 in Calm     92% 0.00 in
02:09 54.4 °F 52.1 °F 29.82 in Calm     92% 0.00 in
02:14 54.2 °F 51.9 °F 29.82 in Calm     92% 0.00 in
02:19 54.4 °F 52.1 °F 29.82 in Calm     92% 0.00 in
02:24 54.6 °F 52.3 °F 29.82 in Calm     92% 0.00 in
02:29 54.4 °F 52.1 °F 29.83 in Calm     92% 0.00 in
02:34 54.2 °F 51.9 °F 29.83 in Calm     92% 0.00 in
02:39 54.2 °F 51.9 °F 29.83 in Calm     92% 0.00 in
02:44 54.3 °F 52.0 °F 29.83 in Calm     92% 0.00 in
02:49 54.5 °F 52.2 °F 29.83 in Calm     92% 0.00 in
02:54 54.5 °F 52.2 °F 29.83 in Calm     92% 0.00 in
02:59 54.8 °F 52.8 °F 29.83 in Calm     93% 0.00 in
03:04 54.9 °F 52.9 °F 29.83 in Calm     93% 0.00 in
03:09 54.9 °F 52.9 °F 29.83 in Calm     93% 0.00 in
03:14 54.8 °F 52.8 °F 29.83 in Calm     93% 0.00 in
03:19 54.9 °F 52.9 °F 29.83 in Calm     93% 0.00 in
03:24 54.8 °F 52.8 °F 29.83 in Calm     93% 0.00 in
03:29 54.9 °F 52.9 °F 29.83 in Calm     93% 0.00 in
03:34 55.1 °F 53.1 °F 29.83 in Calm     93% 0.00 in
03:39 55.1 °F 53.1 °F 29.83 in Calm     93% 0.00 in
03:44 55.0 °F 53.0 °F 29.83 in Calm     93% 0.00 in
03:49 55.1 °F 53.1 °F 29.83 in Calm     93% 0.00 in
03:54 55.0 °F 53.0 °F 29.83 in Calm     93% 0.00 in
03:59 54.8 °F 52.5 °F 29.83 in Calm     92% 0.00 in
04:04 54.6 °F 52.3 °F 29.83 in Calm     92% 0.00 in
04:09 54.6 °F 52.3 °F 29.83 in Calm     92% 0.00 in
04:14 54.4 °F 52.1 °F 29.83 in Calm     92% 0.00 in
04:19 54.3 °F 52.3 °F 29.83 in Calm     93% 0.00 in
04:24 54.2 °F 52.2 °F 29.83 in Calm     93% 0.00 in
04:29 54.1 °F 51.8 °F 29.83 in Calm     92% 0.01 in
04:34 53.9 °F 51.6 °F 29.83 in Calm     92% 0.01 in
04:39 53.9 °F 51.6 °F 29.83 in Calm     92% 0.01 in
04:44 53.7 °F 51.4 °F 29.83 in Calm     92% 0.01 in
04:49 53.6 °F 51.6 °F 29.83 in Calm     93% 0.01 in
04:54 53.4 °F 51.1 °F 29.83 in Calm     92% 0.01 in
04:59 53.3 °F 51.3 °F 29.83 in Calm     93% 0.01 in
05:04 53.5 °F 51.5 °F 29.83 in Calm     93% 0.01 in
05:09 53.5 °F 51.5 °F 29.83 in Calm     93% 0.01 in
05:14 53.5 °F 51.5 °F 29.83 in Calm     93% 0.01 in
05:19 53.6 °F 51.6 °F 29.84 in Calm     93% 0.01 in
05:24 53.7 °F 51.7 °F 29.84 in Calm     93% 0.01 in
05:29 53.9 °F 51.9 °F 29.84 in Calm     93% 0.00 in
05:34 54.1 °F 52.1 °F 29.84 in Calm     93% 0.00 in
05:39 54.1 °F 52.1 °F 29.84 in Calm     93% 0.00 in
05:44 54.1 °F 52.1 °F 29.84 in Calm     93% 0.00 in
05:49 54.0 °F 52.0 °F 29.85 in Calm     93% 0.00 in
05:54 54.0 °F 52.0 °F 29.85 in Calm     93% 0.00 in
05:59 54.1 °F 52.1 °F 29.85 in Calm     93% 0.00 in
06:04 54.1 °F 52.1 °F 29.85 in Calm     93% 0.00 in
06:09 53.9 °F 51.9 °F 29.85 in Calm     93% 0.00 in
06:14 53.5 °F 51.5 °F 29.85 in Calm     93% 0.00 in
06:19 53.8 °F 51.8 °F 29.84 in Calm     93% 0.00 in
06:24 53.6 °F 51.6 °F 29.85 in Calm     93% 0.00 in
06:29 53.3 °F 51.3 °F 29.85 in Calm     93% 0.00 in
06:34 53.3 °F 51.3 °F 29.85 in Calm     93% 0.00 in
06:39 53.7 °F 51.7 °F 29.85 in Calm     93% 0.00 in
06:44 53.9 °F 52.2 °F 29.85 in Calm     94% 0.00 in
06:49 53.9 °F 51.9 °F 29.85 in Calm     93% 0.00 in
06:54 53.9 °F 51.9 °F 29.85 in Calm     93% 0.00 in
06:59 53.9 °F 51.9 °F 29.85 in Calm     93% 0.00 in
07:04 54.1 °F 52.1 °F 29.85 in Calm     93% 0.00 in
07:09 54.3 °F 52.3 °F 29.86 in Calm     93% 0.00 in
07:14 54.4 °F 52.7 °F 29.86 in Calm     94% 0.00 in
07:19 54.4 °F 52.4 °F 29.85 in Calm     93% 0.00 in
07:24 54.6 °F 52.6 °F 29.85 in Calm     93% 0.00 in
07:29 54.7 °F 52.7 °F 29.85 in Calm     93% 0.00 in
07:34 54.9 °F 52.9 °F 29.86 in Calm     93% 0.00 in
07:39 55.2 °F 53.5 °F 29.86 in Calm     94% 0.00 in
07:44 55.4 °F 53.4 °F 29.86 in Calm     93% 0.00 in
07:49 55.7 °F 53.7 °F 29.86 in Calm     93% 0.00 in
07:54 56.0 °F 54.0 °F 29.86 in Calm     93% 0.00 in
07:59 56.3 °F 54.3 °F 29.86 in Calm     93% 0.00 in
08:04 56.7 °F 54.7 °F 29.86 in Calm     93% 0.00 in
08:09 56.9 °F 54.9 °F 29.86 in Calm     93% 0.00 in
08:14 57.1 °F 54.8 °F 29.86 in Calm     92% 0.00 in
08:19 57.3 °F 55.0 °F 29.86 in Calm     92% 0.00 in
08:24 57.6 °F 55.0 °F 29.86 in Calm     91% 0.00 in
08:29 57.5 °F 54.9 °F 29.86 in Calm     91% 0.00 in
08:34 57.8 °F 54.9 °F 29.86 in Calm     90% 0.00 in
08:39 58.0 °F 55.1 °F 29.86 in Calm     90% 0.00 in
08:44 58.1 °F 54.9 °F 29.86 in Calm     89% 0.00 in
08:49 58.3 °F 55.1 °F 29.86 in Calm     89% 0.00 in
08:54 58.6 °F 55.4 °F 29.86 in Calm     89% 0.00 in
08:59 58.7 °F 55.2 °F 29.86 in Calm     88% 0.00 in
09:04 58.7 °F 55.2 °F 29.86 in Calm     88% 0.00 in
09:09 59.0 °F 55.4 °F 29.86 in Calm     88% 0.00 in
09:14 59.7 °F 55.5 °F 29.86 in Calm     86% 0.00 in
09:19 60.0 °F 55.5 °F 29.86 in Calm   3.0 mph 85% 0.00 in
09:24 59.8 °F 55.0 °F 29.87 in Calm   3.0 mph 84% 0.00 in
09:29 59.5 °F 54.3 °F 29.87 in Calm   2.0 mph 83% 0.00 in
09:34 60.4 °F 55.9 °F 29.87 in Calm   4.0 mph 85% 0.00 in
09:39 60.7 °F 55.8 °F 29.87 in SSE 1.0 mph 4.0 mph 84% 0.00 in
09:44 61.3 °F 56.1 °F 29.87 in SSE 2.0 mph 5.0 mph 83% 0.00 in
09:49 61.9 °F 56.0 °F 29.87 in ESE 3.0 mph 4.0 mph 81% 0.00 in
09:54 62.5 °F 56.2 °F 29.87 in SSE 2.0 mph 4.0 mph 80% 0.00 in
09:59 63.2 °F 56.6 °F 29.87 in SE 1.0 mph 5.0 mph 79% 0.00 in
10:04 63.4 °F 56.8 °F 29.87 in SSW 1.0 mph 3.0 mph 79% 0.00 in
10:09 63.6 °F 56.3 °F 29.87 in Calm   2.0 mph 77% 0.00 in
10:14 63.7 °F 56.4 °F 29.87 in SSW 1.0 mph 3.0 mph 77% 0.00 in
10:19 63.9 °F 56.2 °F 29.87 in SW 1.0 mph 3.0 mph 76% 0.00 in
10:24 64.1 °F 56.7 °F 29.87 in South 1.0 mph 4.0 mph 77% 0.00 in
10:29 64.2 °F 56.1 °F 29.87 in SSW 1.0 mph 4.0 mph 75% 0.00 in
10:34 63.9 °F 55.8 °F 29.87 in Calm   2.0 mph 75% 0.00 in
10:39 64.0 °F 55.9 °F 29.87 in SW 1.0 mph 3.0 mph 75% 0.00 in
10:44 64.4 °F 55.6 °F 29.87 in South 1.0 mph 4.0 mph 73% 0.00 in
10:49 64.7 °F 56.6 °F 29.87 in SSW 1.0 mph 3.0 mph 75% 0.00 in
10:54 65.1 °F 56.2 °F 29.87 in SSW 1.0 mph 4.0 mph 73% 0.00 in
10:59 65.5 °F 56.2 °F 29.87 in SW 1.0 mph 4.0 mph 72% 0.00 in
11:04 65.4 °F 56.1 °F 29.87 in SW 1.0 mph 4.0 mph 72% 0.00 in
11:09 66.1 °F 55.6 °F 29.87 in SW 1.0 mph 3.0 mph 69% 0.00 in
11:14 66.3 °F 56.6 °F 29.87 in SW 1.0 mph 3.0 mph 71% 0.00 in
11:19 67.3 °F 57.2 °F 29.86 in SW 2.0 mph 4.0 mph 70% 0.00 in
11:24 66.9 °F 56.4 °F 29.86 in WSW 3.0 mph 7.0 mph 69% 0.00 in
11:29 67.0 °F 57.3 °F 29.86 in Calm   5.0 mph 71% 0.00 in
11:34 67.2 °F 56.7 °F 29.86 in Calm   5.0 mph 69% 0.00 in
11:39 68.1 °F 57.5 °F 29.87 in South 5.0 mph 9.0 mph 69% 0.00 in
11:44 68.7 °F 58.1 °F 29.87 in WNW 3.0 mph 10.0 mph 69% 0.00 in
11:49 67.8 °F 57.3 °F 29.87 in WNW 6.0 mph 7.0 mph 69% 0.00 in
11:54 69.0 °F 58.0 °F 29.87 in West 4.0 mph 7.0 mph 68% 0.00 in
11:59 68.7 °F 58.1 °F 29.87 in West 4.0 mph 10.0 mph 69% 0.00 in
12:04 68.7 °F 57.3 °F 29.87 in West 5.0 mph 10.0 mph 67% 0.00 in
12:09 68.7 °F 57.3 °F 29.87 in WSW 5.0 mph 9.0 mph 67% 0.00 in
12:14 68.1 °F 57.1 °F 29.87 in WSW 4.0 mph 9.0 mph 68% 0.00 in
12:19 69.5 °F 58.1 °F 29.87 in WSW 4.0 mph 9.0 mph 67% 0.00 in
12:24 69.6 °F 58.2 °F 29.87 in SW 5.0 mph 9.0 mph 67% 0.00 in
12:29 68.3 °F 56.9 °F 29.87 in West 3.0 mph 8.0 mph 67% 0.00 in
12:34 67.9 °F 54.4 °F 29.87 in NW 5.0 mph 10.0 mph 62% 0.00 in
12:39 66.8 °F 54.2 °F 29.87 in WNW 4.0 mph 9.0 mph 64% 0.00 in
12:44 66.3 °F 54.6 °F 29.88 in WNW 3.0 mph 8.0 mph 66% 0.00 in
12:49 66.7 °F 55.4 °F 29.88 in West 3.0 mph 7.0 mph 67% 0.00 in
12:54 66.5 °F 54.8 °F 29.87 in WNW 4.0 mph 7.0 mph 66% 0.00 in
12:59 66.5 °F 55.2 °F 29.87 in WNW 4.0 mph 9.0 mph 67% 0.00 in
13:04 66.5 °F 54.8 °F 29.87 in WNW 4.0 mph 9.0 mph 66% 0.00 in
13:09 68.2 °F 56.8 °F 29.87 in WNW 3.0 mph 8.0 mph 67% 0.00 in
13:14 68.2 °F 56.8 °F 29.87 in West 2.0 mph 6.0 mph 67% 0.00 in
13:19 69.3 °F 57.5 °F 29.86 in WNW 3.0 mph 4.0 mph 66% 0.00 in
13:24 69.5 °F 56.3 °F 29.86 in NW 3.0 mph 6.0 mph 63% 0.00 in
13:29 68.3 °F 55.6 °F 29.86 in WNW 3.0 mph 9.0 mph 64% 0.00 in
13:34 67.6 °F 55.4 °F 29.87 in WNW 3.0 mph 9.0 mph 65% 0.00 in
13:39 67.5 °F 55.3 °F 29.86 in NW 2.0 mph 6.0 mph 65% 0.00 in
13:44 67.8 °F 56.0 °F 29.86 in WNW 1.0 mph 4.0 mph 66% 0.00 in
13:49 67.4 °F 55.2 °F 29.86 in North 4.0 mph 7.0 mph 65% 0.00 in
13:54 66.9 °F 55.2 °F 29.86 in NNW 3.0 mph 7.0 mph 66% 0.00 in
13:59 66.9 °F 55.2 °F 29.86 in North 2.0 mph 5.0 mph 66% 0.00 in
14:04 67.4 °F 55.6 °F 29.86 in Calm   4.0 mph 66% 0.00 in
14:09 67.1 °F 54.1 °F 29.86 in Calm   6.0 mph 63% 0.00 in
14:14 66.9 °F 55.2 °F 29.86 in North 2.0 mph 5.0 mph 66% 0.00 in
14:19 67.0 °F 55.3 °F 29.86 in NW 4.0 mph 4.0 mph 66% 0.00 in
14:24 66.9 °F 54.3 °F 29.86 in NNW 2.0 mph 7.0 mph 64% 0.00 in
14:29 67.8 °F 55.6 °F 29.86 in NNW 2.0 mph 7.0 mph 65% 0.00 in
14:34 68.4 °F 55.3 °F 29.86 in WNW 2.0 mph 5.0 mph 63% 0.00 in
14:39 68.9 °F 56.6 °F 29.86 in WNW 2.0 mph 5.0 mph 65% 0.00 in
14:44 70.7 °F 58.4 °F 29.86 in WSW 3.0 mph 5.0 mph 65% 0.00 in
14:49 71.4 °F 59.4 °F 29.86 in SW 3.0 mph 6.0 mph 66% 0.00 in
14:54 69.8 °F 54.8 °F 29.86 in South 2.0 mph 8.0 mph 59% 0.00 in
14:59 70.2 °F 56.1 °F 29.86 in WSW 4.0 mph 6.0 mph 61% 0.00 in
15:04 69.4 °F 55.4 °F 29.87 in WSW 2.0 mph 10.0 mph 61% 0.00 in
15:09 69.0 °F 54.5 °F 29.86 in Calm   6.0 mph 60% 0.00 in
15:14 68.9 °F 55.3 °F 29.86 in West 4.0 mph 7.0 mph 62% 0.00 in
15:19 68.7 °F 55.2 °F 29.86 in WSW 1.0 mph 9.0 mph 62% 0.00 in
15:24 69.0 °F 55.0 °F 29.87 in West 2.0 mph 8.0 mph 61% 0.00 in
15:29 68.8 °F 55.2 °F 29.87 in WSW 3.0 mph 8.0 mph 62% 0.00 in
15:34 68.8 °F 55.7 °F 29.86 in SW 6.0 mph 10.0 mph 63% 0.00 in
15:39 69.4 °F 54.4 °F 29.86 in SW 5.0 mph 9.0 mph 59% 0.00 in
15:44 69.3 °F 53.4 °F 29.86 in SW 9.0 mph 11.0 mph 57% 0.00 in
15:49 69.0 °F 53.6 °F 29.86 in SW 6.0 mph 11.0 mph 58% 0.00 in
15:54 69.2 °F 53.3 °F 29.86 in SW 3.0 mph 9.0 mph 57% 0.00 in
15:59 68.9 °F 53.0 °F 29.86 in WSW 5.0 mph 9.0 mph 57% 0.00 in
16:04 68.4 °F 52.6 °F 29.86 in SW 5.0 mph 9.0 mph 57% 0.00 in
16:09 68.0 °F 52.2 °F 29.86 in SW 5.0 mph 10.0 mph 57% 0.00 in
16:14 68.1 °F 52.8 °F 29.85 in SW 5.0 mph 10.0 mph 58% 0.00 in
16:19 67.9 °F 52.6 °F 29.85 in SW 4.0 mph 9.0 mph 58% 0.00 in
16:24 67.9 °F 52.1 °F 29.86 in SW 4.0 mph 9.0 mph 57% 0.00 in
16:29 68.1 °F 51.8 °F 29.86 in SW 4.0 mph 8.0 mph 56% 0.00 in
16:34 68.1 °F 51.3 °F 29.86 in WSW 2.0 mph 8.0 mph 55% 0.00 in
16:39 68.0 °F 51.2 °F 29.86 in SW 5.0 mph 6.0 mph 55% 0.00 in
16:44 67.7 °F 50.5 °F 29.86 in WSW 2.0 mph 7.0 mph 54% 0.00 in
16:49 67.6 °F 50.9 °F 29.85 in WSW 2.0 mph 8.0 mph 55% 0.00 in
16:54 67.7 °F 50.9 °F 29.85 in SW 6.0 mph 7.0 mph 55% 0.00 in
16:59 67.6 °F 50.9 °F 29.85 in WSW 4.0 mph 7.0 mph 55% 0.00 in
17:04 68.0 °F 50.7 °F 29.85 in WSW 4.0 mph 7.0 mph 54% 0.00 in
17:09 67.9 °F 50.6 °F 29.86 in WSW 4.0 mph 7.0 mph 54% 0.00 in
17:14 67.7 °F 50.9 °F 29.86 in WSW 5.0 mph 9.0 mph 55% 0.00 in
17:19 67.4 °F 51.2 °F 29.86 in WSW 5.0 mph 9.0 mph 56% 0.00 in
17:24 67.2 °F 51.4 °F 29.86 in West 5.0 mph 8.0 mph 57% 0.00 in
17:29 67.1 °F 51.8 °F 29.86 in West 5.0 mph 10.0 mph 58% 0.00 in
17:34 67.0 °F 52.2 °F 29.86 in WNW 3.0 mph 10.0 mph 59% 0.00 in
17:39 66.8 °F 52.0 °F 29.86 in West 2.0 mph 5.0 mph 59% 0.00 in
17:44 66.5 °F 51.7 °F 29.86 in West 3.0 mph 6.0 mph 59% 0.00 in
17:49 66.7 °F 52.8 °F 29.86 in North 2.0 mph 3.0 mph 61% 0.00 in
17:54 66.2 °F 55.7 °F 29.86 in NE 1.0 mph 6.0 mph 69% 0.00 in
17:59 65.0 °F 54.2 °F 29.86 in NE 3.0 mph 9.0 mph 68% 0.00 in
18:04 64.5 °F 54.1 °F 29.87 in ENE 4.0 mph 9.0 mph 69% 0.00 in
18:09 64.3 °F 53.5 °F 29.87 in NE 2.0 mph 8.0 mph 68% 0.00 in
18:14 64.3 °F 53.5 °F 29.87 in NE 4.0 mph 9.0 mph 68% 0.00 in
18:19 64.1 °F 53.3 °F 29.87 in ENE 5.0 mph 11.0 mph 68% 0.00 in
18:24 63.9 °F 53.1 °F 29.87 in NE 4.0 mph 9.0 mph 68% 0.00 in
18:29 64.0 °F 53.2 °F 29.87 in NE 4.0 mph 9.0 mph 68% 0.00 in
18:34 64.1 °F 53.3 °F 29.87 in NE 4.0 mph 9.0 mph 68% 0.00 in
18:39 64.1 °F 53.3 °F 29.87 in ENE 3.0 mph 7.0 mph 68% 0.00 in
18:44 64.2 °F 53.4 °F 29.87 in Calm   5.0 mph 68% 0.00 in
18:49 64.4 °F 53.6 °F 29.87 in ENE 3.0 mph 4.0 mph 68% 0.00 in
18:54 64.5 °F 53.7 °F 29.87 in Calm   3.0 mph 68% 0.00 in
18:59 64.6 °F 53.8 °F 29.87 in Calm   4.0 mph 68% 0.00 in
19:04 64.5 °F 53.7 °F 29.88 in East 1.0 mph 5.0 mph 68% 0.00 in
19:09 64.3 °F 53.5 °F 29.88 in East 1.0 mph 5.0 mph 68% 0.00 in
19:14 64.3 °F 53.5 °F 29.87 in Calm   2.0 mph 68% 0.00 in
19:19 64.3 °F 53.5 °F 29.87 in Calm     68% 0.00 in
19:24 64.1 °F 53.3 °F 29.87 in Calm     68% 0.00 in
19:29 63.7 °F 53.3 °F 29.87 in Calm     69% 0.00 in
19:34 63.5 °F 53.5 °F 29.87 in Calm     70% 0.00 in
19:39 63.2 °F 53.3 °F 29.87 in Calm   3.0 mph 70% 0.00 in
19:44 63.1 °F 53.5 °F 29.87 in East 1.0 mph 3.0 mph 71% 0.00 in
19:49 63.0 °F 53.4 °F 29.87 in ENE 1.0 mph 3.0 mph 71% 0.00 in
19:54 62.9 °F 53.4 °F 29.87 in East 1.0 mph 3.0 mph 71% 0.00 in
19:59 62.8 °F 53.3 °F 29.87 in East 1.0 mph 2.0 mph 71% 0.00 in
20:04 62.7 °F 53.2 °F 29.87 in ENE 1.0 mph 3.0 mph 71% 0.00 in
20:09 62.6 °F 53.1 °F 29.87 in Calm   3.0 mph 71% 0.00 in
20:14 62.4 °F 52.9 °F 29.88 in ENE 1.0 mph 2.0 mph 71% 0.00 in
20:19 62.1 °F 52.6 °F 29.87 in Calm   2.0 mph 71% 0.00 in
20:24 62.0 °F 52.9 °F 29.88 in ENE 2.0 mph 3.0 mph 72% 0.00 in
20:29 61.9 °F 52.8 °F 29.88 in Calm   3.0 mph 72% 0.00 in
20:34 61.8 °F 53.1 °F 29.87 in Calm   2.0 mph 73% 0.00 in
20:39 61.8 °F 53.1 °F 29.87 in Calm     73% 0.00 in
20:44 61.8 °F 53.4 °F 29.87 in Calm     74% 0.00 in
20:49 61.8 °F 53.4 °F 29.88 in Calm   3.0 mph 74% 0.00 in
20:54 61.8 °F 53.4 °F 29.88 in Calm   3.0 mph 74% 0.00 in
20:59 61.8 °F 53.4 °F 29.88 in Calm   2.0 mph 74% 0.00 in
21:04 61.9 °F 53.9 °F 29.87 in Calm     75% 0.00 in
21:09 61.9 °F 53.9 °F 29.87 in Calm     75% 0.00 in
21:14 61.8 °F 53.8 °F 29.88 in Calm     75% 0.00 in
21:19 61.7 °F 54.1 °F 29.88 in Calm     76% 0.00 in
21:24 61.7 °F 54.1 °F 29.88 in Calm   2.0 mph 76% 0.00 in
21:29 61.6 °F 54.0 °F 29.87 in Calm     76% 0.00 in
21:34 61.6 °F 54.3 °F 29.87 in Calm     77% 0.00 in
21:39 61.6 °F 54.3 °F 29.87 in Calm   2.0 mph 77% 0.00 in
21:44 61.4 °F 54.1 °F 29.87 in Calm   2.0 mph 77% 0.00 in
21:49 61.3 °F 54.0 °F 29.87 in Calm   2.0 mph 77% 0.00 in
21:54 61.2 °F 54.3 °F 29.87 in Calm   2.0 mph 78% 0.00 in
21:59 61.0 °F 54.1 °F 29.87 in Calm     78% 0.00 in
22:04 60.8 °F 53.9 °F 29.87 in Calm     78% 0.00 in
22:09 60.6 °F 53.7 °F 29.87 in Calm     78% 0.00 in
22:14 60.4 °F 53.9 °F 29.87 in Calm     79% 0.00 in
22:19 59.7 °F 53.5 °F 29.87 in Calm     80% 0.00 in
22:24 59.4 °F 53.2 °F 29.87 in Calm     80% 0.00 in
22:29 59.2 °F 53.4 °F 29.87 in Calm     81% 0.00 in
22:34 58.8 °F 53.0 °F 29.86 in Calm     81% 0.00 in
22:39 58.6 °F 53.1 °F 29.86 in Calm     82% 0.00 in
22:44 58.4 °F 52.9 °F 29.86 in Calm     82% 0.00 in
22:49 58.4 °F 52.6 °F 29.86 in Calm     81% 0.00 in
22:54 58.6 °F 52.4 °F 29.86 in Calm     80% 0.00 in
22:59 58.6 °F 52.4 °F 29.86 in Calm     80% 0.00 in
23:04 58.6 °F 52.4 °F 29.86 in Calm     80% 0.00 in
23:09 58.4 °F 52.3 °F 29.86 in SSE 1.0 mph 6.0 mph 80% 0.00 in
23:19 58.3 °F 51.8 °F 29.86 in South 1.0 mph 5.0 mph 79% 0.00 in
23:24 57.9 °F 51.8 °F 29.86 in SSW 1.0 mph 3.0 mph 80% 0.00 in
23:25 57.9 °F 51.8 °F 29.86 in SSW 1.0 mph 4.0 mph 80% 0.00 in
23:29 57.5 °F 51.7 °F 29.86 in SSW 1.0 mph 3.0 mph 81% 0.00 in
23:34 57.3 °F 51.5 °F 29.86 in Calm   3.0 mph 81% 0.00 in
23:39 57.3 °F 51.9 °F 29.86 in SSW 1.0 mph 3.0 mph 82% 0.00 in
23:44 57.5 °F 51.7 °F 29.86 in Calm   3.0 mph 81% 0.00 in
23:49 57.7 °F 52.2 °F 29.86 in Calm   2.0 mph 82% 0.00 in
23:54 57.8 °F 52.0 °F 29.86 in Calm     81% 0.00 in
23:59 57.9 °F 52.1 °F 29.86 in Calm     81% 0.00 in
Buffalo, New York, USA
Compliments of Weather Underground - 2.5 mb